Time;durP1;ratioP1;P1;durP2;ratioP2;P2;SDS_P1;SDS_P2;PMS_P1;PMS_P2;Temp;Humidity;BMP_temperature;BMP_pressure;BME280_temperature;BME280_humidity;BME280_pressure;Samples;Min_cycle;Max_cycle;Signal;HPM_P1;HPM_P2
2023/08/10 00:01:50;;;;;;;430.95;395.95;;;;;;;;;;5056071;28;20021;-62
2023/08/10 00:04:16;;;;;;;441.00;404.42;;;;;;;;;;5026058;28;20056;-63
2023/08/10 00:06:41;;;;;;;436.63;400.23;;;;;;;;;;5024358;28;20069;-59
2023/08/10 00:09:08;;;;;;;456.90;419.80;;;;;;;;;;5041237;28;20121;-62
2023/08/10 00:11:33;;;;;;;422.13;383.75;;;;;;;;;;5044697;28;20637;-63
2023/08/10 00:13:58;;;;;;;416.17;376.80;;;;;;;;;;5043244;28;20339;-62
2023/08/10 00:16:24;;;;;;;420.55;383.50;;;;;;;;;;5044281;28;20032;-64
2023/08/10 00:18:49;;;;;;;448.83;411.07;;;;;;;;;;5028755;28;20030;-57
2023/08/10 00:21:15;;;;;;;449.87;412.60;;;;;;;;;;5025734;28;20254;-63
2023/08/10 00:23:40;;;;;;;455.27;418.17;;;;;;;;;;5050834;28;20749;-64
2023/08/10 00:26:05;;;;;;;453.83;416.52;;;;;;;;;;5044580;28;20386;-62
2023/08/10 00:28:30;;;;;;;490.20;452.38;;;;;;;;;;5031164;28;20057;-63
2023/08/10 00:30:56;;;;;;;478.02;439.15;;;;;;;;;;5028044;28;20064;-63
2023/08/10 00:33:21;;;;;;;508.35;468.55;;;;;;;;;;5024609;28;20440;-60
2023/08/10 00:35:46;;;;;;;514.00;473.92;;;;;;;;;;5024634;28;20029;-63
2023/08/10 00:38:12;;;;;;;527.73;486.40;;;;;;;;;;5033896;28;20027;-61
2023/08/10 00:40:37;;;;;;;531.22;488.70;;;;;;;;;;5043473;28;20324;-62
2023/08/10 00:43:02;;;;;;;497.80;456.20;;;;;;;;;;5042322;28;20526;-63
2023/08/10 00:45:28;;;;;;;527.58;484.83;;;;;;;;;;5040852;28;20285;-63
2023/08/10 00:47:54;;;;;;;492.70;454.13;;;;;;;;;;5037574;28;20083;-64
2023/08/10 00:50:19;;;;;;;439.63;400.88;;;;;;;;;;5023995;28;20485;-62
2023/08/10 00:52:45;;;;;;;455.65;413.42;;;;;;;;;;5024042;28;20026;-63
2023/08/10 00:55:10;;;;;;;467.75;426.25;;;;;;;;;;5024466;28;20025;-61
2023/08/10 00:57:36;;;;;;;480.92;439.88;;;;;;;;;;5027754;28;20054;-63
2023/08/10 01:00:02;;;;;;;450.23;407.55;;;;;;;;;;5044080;28;20032;-63
2023/08/10 01:02:27;;;;;;;461.73;419.88;;;;;;;;;;5033767;28;20013;-62
2023/08/10 01:04:53;;;;;;;460.08;419.42;;;;;;;;;;5037258;28;20148;-64
2023/08/10 01:07:47;;;;;;;484.60;440.33;;;;;;;;;;5039086;28;20580;-59
2023/08/10 01:10:33;;;;;;;442.52;401.55;;;;;;;;;;5001585;28;20029;-62
2023/08/10 01:12:59;;;;;;;447.75;406.05;;;;;;;;;;5009060;28;20544;-64
2023/08/10 01:15:44;;;;;;;488.23;447.40;;;;;;;;;;5024490;28;20129;-63
2023/08/10 01:18:12;;;;;;;476.42;434.85;;;;;;;;;;5020883;28;20026;-60
2023/08/10 01:20:38;;;;;;;479.20;438.33;;;;;;;;;;5041664;28;20033;-62
2023/08/10 01:23:13;;;;;;;475.33;435.05;;;;;;;;;;5023508;28;20084;-62
2023/08/10 01:25:41;;;;;;;436.40;397.88;;;;;;;;;;5024629;28;20034;-63
2023/08/10 01:28:06;;;;;;;438.02;399.83;;;;;;;;;;5019027;28;20435;-64
2023/08/10 01:30:31;;;;;;;460.95;422.83;;;;;;;;;;5023618;28;20424;-62
2023/08/10 01:32:57;;;;;;;496.15;455.60;;;;;;;;;;5023479;28;20452;-63
2023/08/10 01:35:22;;;;;;;487.35;448.40;;;;;;;;;;5024839;28;20037;-64
2023/08/10 01:37:47;;;;;;;483.70;443.00;;;;;;;;;;5023924;28;20592;-61
2023/08/10 01:40:13;;;;;;;481.08;441.65;;;;;;;;;;5024321;28;20037;-63
2023/08/10 01:42:44;;;;;;;527.30;485.40;;;;;;;;;;5014836;28;20026;-64
2023/08/10 01:45:09;;;;;;;477.40;438.35;;;;;;;;;;5019963;28;20117;-61
2023/08/10 01:47:39;;;;;;;458.23;420.42;;;;;;;;;;5025825;28;20579;-63
2023/08/10 01:50:06;;;;;;;519.42;478.67;;;;;;;;;;5027001;28;20055;-62
2023/08/10 01:52:34;;;;;;;480.20;440.88;;;;;;;;;;5031699;28;20364;-61
2023/08/10 01:55:00;;;;;;;479.55;440.98;;;;;;;;;;5046910;28;20079;-63
2023/08/10 01:57:28;;;;;;;465.17;426.27;;;;;;;;;;5043637;28;20028;-64
2023/08/10 01:59:54;;;;;;;449.75;408.95;;;;;;;;;;5025594;28;20079;-62
2023/08/10 02:02:19;;;;;;;475.27;435.48;;;;;;;;;;5029015;28;20021;-64
2023/08/10 02:04:44;;;;;;;470.33;431.57;;;;;;;;;;5026650;28;20018;-59
2023/08/10 02:07:09;;;;;;;476.23;436.60;;;;;;;;;;5026102;28;20745;-63
2023/08/10 02:09:35;;;;;;;474.67;435.50;;;;;;;;;;5024007;28;20045;-62
2023/08/10 02:12:00;;;;;;;484.40;443.95;;;;;;;;;;5026848;28;20384;-64
2023/08/10 02:14:26;;;;;;;463.50;423.02;;;;;;;;;;5046312;28;20028;-62
2023/08/10 02:16:51;;;;;;;449.92;410.55;;;;;;;;;;5040806;28;20529;-63
2023/08/10 02:19:16;;;;;;;513.10;471.00;;;;;;;;;;5026434;28;20033;-63
2023/08/10 02:21:42;;;;;;;440.58;396.58;;;;;;;;;;5026629;28;20029;-63
2023/08/10 02:24:07;;;;;;;443.73;401.10;;;;;;;;;;5043528;28;20061;-62
2023/08/10 02:26:32;;;;;;;461.17;420.80;;;;;;;;;;5040427;28;20026;-61
2023/08/10 02:28:57;;;;;;;589.78;535.47;;;;;;;;;;5036848;28;20263;-62
2023/08/10 02:31:23;;;;;;;564.58;511.30;;;;;;;;;;5026344;28;20022;-64
2023/08/10 02:33:48;;;;;;;486.88;438.05;;;;;;;;;;5030018;28;20096;-61
2023/08/10 02:36:13;;;;;;;556.23;504.90;;;;;;;;;;5026127;28;20116;-63
2023/08/10 02:38:39;;;;;;;499.23;457.70;;;;;;;;;;5026300;28;20259;-64
2023/08/10 02:41:04;;;;;;;487.75;445.70;;;;;;;;;;5026737;28;20752;-60
2023/08/10 02:43:29;;;;;;;499.65;457.58;;;;;;;;;;5027334;28;20040;-63
2023/08/10 02:45:55;;;;;;;508.02;465.20;;;;;;;;;;5026242;28;20025;-64
2023/08/10 02:48:20;;;;;;;517.85;474.52;;;;;;;;;;5025900;28;20485;-61
2023/08/10 02:50:46;;;;;;;487.40;444.65;;;;;;;;;;5024766;28;20125;-63
2023/08/10 02:53:11;;;;;;;473.95;427.15;;;;;;;;;;5026171;28;20116;-61
2023/08/10 02:55:36;;;;;;;510.40;465.73;;;;;;;;;;5033610;28;20079;-62
2023/08/10 02:58:02;;;;;;;478.70;435.10;;;;;;;;;;5035384;28;20034;-58
2023/08/10 03:00:27;;;;;;;470.55;426.02;;;;;;;;;;5024644;28;20109;-64
2023/08/10 03:02:52;;;;;;;514.83;470.15;;;;;;;;;;5027728;28;20345;-62
2023/08/10 03:05:20;;;;;;;523.03;477.83;;;;;;;;;;5024563;28;20119;-64
2023/08/10 03:07:46;;;;;;;505.63;462.35;;;;;;;;;;5025967;28;20033;-63
2023/08/10 03:10:11;;;;;;;531.17;486.38;;;;;;;;;;5026470;28;20480;-64
2023/08/10 03:12:37;;;;;;;536.42;490.23;;;;;;;;;;5026353;28;20083;-62
2023/08/10 03:15:04;;;;;;;548.20;500.85;;;;;;;;;;5026413;28;20492;-64
2023/08/10 03:17:29;;;;;;;516.58;472.10;;;;;;;;;;5025675;28;20024;-59
2023/08/10 03:19:54;;;;;;;527.53;482.02;;;;;;;;;;5038906;28;20024;-63
2023/08/10 03:22:20;;;;;;;504.10;458.95;;;;;;;;;;5026341;28;20036;-62
2023/08/10 03:24:45;;;;;;;463.50;419.27;;;;;;;;;;5035997;28;20059;-64
2023/08/10 03:27:11;;;;;;;472.50;423.03;;;;;;;;;;5026968;28;20492;-63
2023/08/10 03:29:36;;;;;;;453.48;408.02;;;;;;;;;;5040322;28;20364;-64
2023/08/10 03:32:01;;;;;;;507.02;462.77;;;;;;;;;;5044672;28;20024;-61
2023/08/10 03:34:26;;;;;;;473.33;425.45;;;;;;;;;;5044546;28;20028;-63
2023/08/10 03:36:53;;;;;;;517.08;471.38;;;;;;;;;;5045195;28;20033;-64
2023/08/10 03:39:18;;;;;;;505.05;459.77;;;;;;;;;;5035358;28;20029;-61
2023/08/10 03:41:43;;;;;;;516.30;471.17;;;;;;;;;;5040203;28;20021;-63
2023/08/10 03:44:09;;;;;;;542.78;496.42;;;;;;;;;;5027182;28;20294;-64
2023/08/10 03:46:34;;;;;;;545.67;499.43;;;;;;;;;;5039518;28;20431;-61
2023/08/10 03:48:59;;;;;;;528.97;483.13;;;;;;;;;;5028892;28;20365;-63
2023/08/10 03:51:25;;;;;;;536.35;489.55;;;;;;;;;;5025277;28;20266;-61
2023/08/10 03:53:50;;;;;;;535.65;489.27;;;;;;;;;;5026144;28;20037;-64
2023/08/10 03:56:16;;;;;;;531.25;486.60;;;;;;;;;;5025324;28;20537;-61
2023/08/10 03:58:41;;;;;;;547.37;501.10;;;;;;;;;;5038938;28;20429;-63
2023/08/10 04:01:07;;;;;;;509.75;465.88;;;;;;;;;;5043172;28;20255;-61
2023/08/10 04:03:33;;;;;;;535.03;490.10;;;;;;;;;;5031965;28;20388;-64
2023/08/10 04:05:59;;;;;;;543.72;497.85;;;;;;;;;;5026075;28;20409;-62
2023/08/10 04:08:24;;;;;;;532.85;487.67;;;;;;;;;;5025242;28;20074;-64
2023/08/10 04:10:49;;;;;;;521.83;476.90;;;;;;;;;;5025052;28;20021;-64
2023/08/10 04:13:14;;;;;;;529.53;484.40;;;;;;;;;;5024836;28;20032;-62
2023/08/10 04:15:40;;;;;;;533.53;488.67;;;;;;;;;;5024930;28;20654;-61
2023/08/10 04:18:06;;;;;;;543.28;497.45;;;;;;;;;;5024206;28;20104;-62
2023/08/10 04:20:31;;;;;;;534.75;489.65;;;;;;;;;;5026643;28;20404;-63
2023/08/10 04:22:59;;;;;;;538.38;491.92;;;;;;;;;;5043110;28;20046;-62
2023/08/10 04:25:24;;;;;;;526.97;483.23;;;;;;;;;;5041235;28;20037;-65
2023/08/10 04:27:49;;;;;;;528.97;484.95;;;;;;;;;;5044261;28;20029;-59
2023/08/10 04:30:14;;;;;;;516.65;472.33;;;;;;;;;;5039022;28;20372;-63
2023/08/10 04:32:40;;;;;;;529.50;484.88;;;;;;;;;;5044600;28;20459;-62
2023/08/10 04:35:06;;;;;;;509.73;466.50;;;;;;;;;;5044825;28;20147;-65
2023/08/10 04:37:31;;;;;;;530.75;486.10;;;;;;;;;;5044688;28;20044;-62
2023/08/10 04:39:56;;;;;;;497.00;454.55;;;;;;;;;;5044753;28;20021;-62
2023/08/10 04:42:22;;;;;;;538.03;492.05;;;;;;;;;;5026774;28;20026;-62
2023/08/10 04:44:47;;;;;;;491.20;446.98;;;;;;;;;;5024785;28;20466;-64
2023/08/10 04:47:12;;;;;;;527.28;482.63;;;;;;;;;;5025389;28;20026;-58
2023/08/10 04:49:37;;;;;;;511.48;468.23;;;;;;;;;;5024085;28;20029;-63
2023/08/10 04:52:03;;;;;;;535.47;488.13;;;;;;;;;;5025185;28;20026;-64
2023/08/10 04:54:28;;;;;;;499.67;453.73;;;;;;;;;;5025315;28;20477;-61
2023/08/10 04:56:53;;;;;;;530.70;483.88;;;;;;;;;;5021593;28;20386;-63
2023/08/10 04:59:19;;;;;;;550.20;504.35;;;;;;;;;;5024287;28;20026;-63
2023/08/10 05:01:44;;;;;;;541.53;496.40;;;;;;;;;;5024619;28;20083;-63
2023/08/10 05:04:09;;;;;;;541.60;497.15;;;;;;;;;;5024946;28;20308;-60
2023/08/10 05:06:35;;;;;;;554.15;509.10;;;;;;;;;;5024078;28;20029;-63
2023/08/10 05:09:01;;;;;;;531.33;489.15;;;;;;;;;;5024026;28;20358;-64
2023/08/10 05:11:26;;;;;;;548.63;505.45;;;;;;;;;;5024370;28;20037;-63
2023/08/10 05:13:52;;;;;;;538.92;495.55;;;;;;;;;;5024344;28;20025;-64
2023/08/10 05:16:17;;;;;;;536.87;494.57;;;;;;;;;;5024689;28;20029;-63
2023/08/10 05:18:42;;;;;;;546.17;503.03;;;;;;;;;;5031330;28;20263;-61
2023/08/10 05:21:07;;;;;;;542.10;499.23;;;;;;;;;;5023337;28;20278;-63
2023/08/10 05:23:33;;;;;;;520.00;479.77;;;;;;;;;;5024762;28;20824;-61
2023/08/10 05:25:58;;;;;;;518.72;478.80;;;;;;;;;;5038698;28;20041;-64
2023/08/10 05:28:23;;;;;;;508.83;469.40;;;;;;;;;;5038292;28;20520;-59
2023/08/10 05:30:49;;;;;;;500.05;461.85;;;;;;;;;;5024431;28;20263;-63
2023/08/10 05:33:14;;;;;;;508.37;469.10;;;;;;;;;;5026023;28;20021;-64
2023/08/10 05:35:39;;;;;;;506.57;467.43;;;;;;;;;;5031936;28;20258;-63
2023/08/10 05:38:05;;;;;;;447.30;413.50;;;;;;;;;;5032463;28;20666;-62
2023/08/10 05:40:30;;;;;;;449.13;414.80;;;;;;;;;;5027295;28;20065;-61
2023/08/10 05:42:56;;;;;;;430.67;398.10;;;;;;;;;;5030179;28;20116;-61
2023/08/10 05:45:21;;;;;;;415.65;383.70;;;;;;;;;;5029953;28;20092;-62
2023/08/10 05:47:47;;;;;;;435.73;402.90;;;;;;;;;;5036756;28;20067;-61
2023/08/10 05:50:13;;;;;;;411.55;380.63;;;;;;;;;;5026477;28;20021;-62
2023/08/10 05:52:38;;;;;;;408.48;378.35;;;;;;;;;;5031710;28;20044;-64
2023/08/10 05:55:04;;;;;;;396.00;367.07;;;;;;;;;;5036020;28;20020;-62
2023/08/10 05:57:29;;;;;;;376.88;349.90;;;;;;;;;;5027222;28;20359;-64
2023/08/10 05:59:55;;;;;;;379.40;352.40;;;;;;;;;;5028824;28;20187;-61
2023/08/10 06:02:21;;;;;;;378.05;350.88;;;;;;;;;;5035555;28;20660;-61
2023/08/10 06:04:46;;;;;;;346.95;322.27;;;;;;;;;;5039672;28;20029;-59
2023/08/10 06:07:12;;;;;;;388.25;361.75;;;;;;;;;;5030813;28;20040;-62
2023/08/10 06:09:37;;;;;;;389.27;362.55;;;;;;;;;;5031730;28;20509;-63
2023/08/10 06:12:03;;;;;;;374.60;348.67;;;;;;;;;;5033370;28;20520;-64
2023/08/10 06:14:28;;;;;;;328.40;306.73;;;;;;;;;;5029598;28;20481;-64
2023/08/10 06:16:53;;;;;;;319.00;297.60;;;;;;;;;;5034958;28;20017;-59
2023/08/10 06:19:18;;;;;;;372.07;346.80;;;;;;;;;;5039012;28;20278;-62
2023/08/10 06:21:44;;;;;;;373.63;347.57;;;;;;;;;;5041633;28;20320;-62
2023/08/10 06:24:09;;;;;;;330.88;308.10;;;;;;;;;;5040901;28;20294;-65
2023/08/10 06:26:34;;;;;;;334.90;312.67;;;;;;;;;;5029741;28;20436;-62
2023/08/10 06:29:00;;;;;;;339.63;316.83;;;;;;;;;;5030507;28;20068;-63
2023/08/10 06:31:25;;;;;;;390.63;363.75;;;;;;;;;;5035597;28;20065;-63
2023/08/10 06:33:51;;;;;;;316.23;295.08;;;;;;;;;;5026849;28;20100;-65
2023/08/10 06:36:16;;;;;;;349.50;325.33;;;;;;;;;;5025999;28;20025;-65
2023/08/10 06:38:41;;;;;;;301.43;278.10;;;;;;;;;;5021857;28;20367;-61
2023/08/10 06:41:07;;;;;;;298.23;278.00;;;;;;;;;;5040414;28;20036;-63
2023/08/10 06:43:32;;;;;;;305.37;285.03;;;;;;;;;;5042086;28;20262;-62
2023/08/10 06:45:58;;;;;;;256.93;240.23;;;;;;;;;;5042433;28;20335;-62
2023/08/10 06:48:23;;;;;;;283.05;263.70;;;;;;;;;;5039519;28;20277;-64
2023/08/10 06:50:48;;;;;;;2.40;1.63;;;;;;;;;;5042726;28;20017;-61
2023/08/10 06:53:14;;;;;;;5.00;2.00;;;;;;;;;;5045992;28;20255;-61
2023/08/10 06:55:39;;;;;;;3.30;1.87;;;;;;;;;;5044744;28;20311;-64
2023/08/10 06:58:04;;;;;;;4.27;2.00;;;;;;;;;;5044686;28;20728;-60
2023/08/10 07:00:30;;;;;;;5.65;2.42;;;;;;;;;;5043586;28;20260;-62
2023/08/10 07:02:56;;;;;;;7.55;2.33;;;;;;;;;;5036307;28;20481;-62
2023/08/10 07:05:22;;;;;;;4.50;1.95;;;;;;;;;;5040419;28;20044;-60
2023/08/10 07:07:47;;;;;;;5.55;1.55;;;;;;;;;;5040126;28;20029;-63
2023/08/10 07:10:13;;;;;;;4.35;2.08;;;;;;;;;;5048524;28;20024;-62
2023/08/10 07:12:38;;;;;;;4.80;2.30;;;;;;;;;;5042272;28;20365;-62
2023/08/10 07:15:04;;;;;;;967.58;823.63;;;;;;;;;;5036964;28;20075;-60
2023/08/10 07:17:29;;;;;;;995.17;836.22;;;;;;;;;;5030125;28;20358;-63
2023/08/10 07:19:54;;;;;;;985.60;836.33;;;;;;;;;;5033908;28;20048;-59
2023/08/10 07:22:20;;;;;;;995.35;826.95;;;;;;;;;;5027309;28;20775;-60
2023/08/10 07:24:45;;;;;;;983.50;806.97;;;;;;;;;;5031883;28;20057;-62
2023/08/10 07:27:10;;;;;;;984.30;811.10;;;;;;;;;;5034296;28;21118;-60
